Flugplatz Osnabrück-Atterheide

EDWO · Rhénanie du Nord-Westphalie, Allemagne

METAR anciennes EDWO · Flugplatz Osnabrück-Atterheide

Tu vois ci-dessous les METAR des derniers jours. Sélectionne une année pour parcourir les METAR plus anciens, à partir de l'année 2007.

30 novembre 2022

Temps Code Temps Temp. Vue Base cloud Vent METAR/SPECI
13:50
I
5 °C 10 km+ 500 ft 020° 020° 5 kt METAR EDDG 301250Z AUTO 02005KT 9999 BKN005 05/04 Q1024 TEMPO BKN004
13:20
I
5 °C 10 km+ 500 ft 020° 020° 5 kt METAR EDDG 301220Z AUTO 02005KT 350V050 9999 -DZ BKN005 05/04 Q1024 TEMPO SCT005 OVC010
12:50
I
6 °C 10 km+ 600 ft 360° 360° 5 kt METAR EDDG 301150Z AUTO 36005KT 9999 BKN006 OVC011 06/05 Q1024 BECMG SCT005
12:20
L
5 °C 6 km 300 ft 020° 020° 6 kt METAR EDDG 301120Z AUTO 02006KT 6000 -DZ BKN003 OVC007 05/05 Q1023 BECMG BKN006
11:50
L
5 °C 4,1 km 400 ft 350° 350° 6 kt METAR EDDG 301050Z AUTO 35006KT 9999 4100 BR BKN004 05/05 Q1023 BECMG BKN006
11:20
L
6 °C 6 km 300 ft 350° 350° 6 kt METAR EDDG 301020Z AUTO 35006KT 6000 OVC003 06/05 Q1023 TEMPO 3000 BR BKN001
10:50
L
6 °C 3,7 km 300 ft 330° 330° 5 kt METAR EDDG 300950Z AUTO 33005KT 3700 BR BKN003 06/05 Q1023 TEMPO 1200 BR BKN001
10:20
L
5 °C 2,1 km 200 ft 340° 340° 6 kt METAR EDDG 300920Z AUTO 34006KT 310V010 2100 BR OVC002 05/05 Q1023 TEMPO 1200 BR BKN001
09:50
L
6 °C 4,3 km 300 ft 330° 330° 5 kt METAR EDDG 300850Z AUTO 33005KT 4300 BR OVC003 06/05 Q1023 TEMPO 1200 BR BKN001
09:20
L
6 °C 9 km 400 ft 340° 340° 5 kt METAR EDDG 300820Z AUTO 34005KT 9000 BKN004 06/05 Q1023 TEMPO 3000 BR
08:50
I
6 °C 10 km+ 500 ft 340° 340° 5 kt METAR EDDG 300750Z AUTO 34005KT 9999 OVC005 06/05 Q1023 TEMPO 3000 BR
08:20
I
6 °C 10 km+ 500 ft 340° 340° 5 kt METAR EDDG 300720Z AUTO 34005KT 9999 OVC005 06/05 Q1022 TEMPO 3000 BR
07:50
I
6 °C 10 km+ 500 ft 330° 330° 4 kt METAR EDDG 300650Z AUTO 33004KT 9999 BKN005 06/05 Q1022 TEMPO 3000 BR
07:20
I
6 °C 10 km+ 600 ft 340° 340° 4 kt METAR EDDG 300620Z AUTO 34004KT 9999 BKN006 OVC016 06/05 Q1022 TEMPO 0800 FG BKN001
06:50
L
6 °C 9 km 300 ft 340° 340° 4 kt METAR EDDG 300550Z AUTO 34004KT 9000 BKN003 OVC008 06/05 Q1022 TEMPO 0800 FG BKN001
06:20
L
6 °C 7 km 300 ft 340° 340° 5 kt METAR EDDG 300520Z AUTO 34005KT 310V010 7000 OVC003 06/05 Q1022 TEMPO 4000 BR
05:50
I
6 °C 6 km 600 ft 330° 330° 5 kt METAR EDDG 300450Z AUTO 33005KT 6000 SCT002 OVC006 06/05 Q1021 TEMPO 3000 BR BKN003
05:20
L
6 °C 3,9 km 200 ft 290° 290° 4 kt METAR EDDG 300420Z AUTO 29004KT 270V330 3900 BR OVC002 06/05 Q1021 TEMPO 2500
04:50
L
6 °C 5 km 400 ft 320° 320° 4 kt METAR EDDG 300350Z AUTO 32004KT 280V350 5000 BR OVC004 06/05 Q1022 TEMPO 2500
04:20
L
6 °C 6 km 400 ft 300° 300° 3 kt METAR EDDG 300320Z AUTO 30003KT 270V330 6000 OVC004 06/05 Q1021 NOSIG
03:50
I
6 °C 7 km 500 ft 290° 290° 3 kt METAR EDDG 300250Z AUTO 29003KT 7000 OVC005 06/05 Q1021 TEMPO BKN004
03:20
I
6 °C 8 km 700 ft 290° 290° 3 kt METAR EDDG 300220Z AUTO 29003KT 8000 OVC007 06/05 Q1021 TEMPO 4000 BR BKN004
02:50
I
6 °C 7 km 800 ft 280° 280° 4 kt METAR EDDG 300150Z AUTO 28004KT 7000 OVC008 06/05 Q1021 NOSIG
02:20
I
6 °C 6 km 500 ft 270° 270° 3 kt METAR EDDG 300120Z AUTO 27003KT 6000 OVC005 06/05 Q1021 NOSIG
01:50
L
6 °C 5 km 300 ft 290° 290° 4 kt METAR EDDG 300050Z AUTO 29004KT 260V320 5000 BR OVC003 06/05 Q1021 BECMG 3000
01:20
I
6 °C 4,6 km 900 ft 290° 290° 4 kt METAR EDDG 300020Z AUTO 29004KT 4600 BR SCT005 OVC009 06/05 Q1021 BECMG BKN004
00:50
L
6 °C 6 km 400 ft 290° 290° 6 kt METAR EDDG 292350Z AUTO 29006KT 270V330 6000 OVC004 06/05 Q1021 BECMG 4000 BR
00:20
I
6 °C 7 km 500 ft 310° 310° 6 kt METAR EDDG 292320Z AUTO 31006KT 280V340 7000 OVC005 06/05 Q1021 NOSIG

29 novembre 2022

Temps Code Temps Temp. Vue Base cloud Vent METAR/SPECI
23:50
I
6 °C 7 km 500 ft 330° 330° 5 kt METAR EDDG 292250Z AUTO 33005KT 280V360 7000 BKN005 06/05 Q1021 TEMPO 4000 BR BKN004
23:20
I
7 °C 7 km 600 ft 330° 330° 7 kt METAR EDDG 292220Z AUTO 33007KT 7000 OVC006 07/05 Q1021 NOSIG
22:50
I
7 °C 7 km 600 ft 330° 330° 5 kt METAR EDDG 292150Z AUTO 33005KT 7000 OVC006 07/06 Q1021 BECMG 4000 BR
22:20
I
7 °C 6 km 500 ft 340° 340° 5 kt METAR EDDG 292120Z AUTO 34005KT 6000 OVC005 07/06 Q1020 BECMG 3000 BR BKN003
21:50
I
7 °C 6 km 500 ft 350° 350° 6 kt METAR EDDG 292050Z AUTO 35006KT 6000 OVC005 07/06 Q1020 BECMG 3000 BR BKN003
21:20
M
8 °C 10 km+ 1.300 ft 300° 300° 6 kt METAR EDDG 292020Z AUTO 30006KT 260V340 9999 SCT007 OVC013 08/07 Q1020 BECMG BKN007
20:50
M
8 °C 9 km 1.300 ft 270° 270° 3 kt METAR EDDG 291950Z AUTO 27003KT 9000 OVC013 08/07 Q1020 TEMPO 3500 BR BKN004
20:20
M
8 °C 7 km 1.300 ft 280° 280° 4 kt METAR EDDG 291920Z AUTO 28004KT 7000 FEW008 OVC013 08/07 Q1020 TEMPO 3500 BR BKN004
19:50
M
8 °C 6 km 1.000 ft 280° 280° 3 kt METAR EDDG 291850Z AUTO 28003KT 250V310 6000 FEW004 OVC010 08/07 Q1020 TEMPO 3500 BR BKN005
19:20
I
8 °C 5 km 600 ft 260° 260° 3 kt METAR EDDG 291820Z AUTO 26003KT 5000 BR BKN006 OVC009 08/07 Q1020 REDZ TEMPO 3000 BKN004
18:50
I
8 °C 3,7 km 500 ft 250° 250° 4 kt METAR EDDG 291750Z AUTO 25004KT 3700 BR BKN005 08/07 Q1019 REDZ NOSIG
18:20
I
8 °C 5 km 500 ft 260° 260° 4 kt METAR EDDG 291720Z AUTO 26004KT 5000 BR OVC005 08/07 Q1019 TEMPO 3000 BKN004
17:50
I
8 °C 5 km 500 ft 250° 250° 4 kt METAR EDDG 291650Z AUTO 25004KT 5000 BR OVC005 08/07 Q1019 TEMPO 3000 BKN004
17:20
I
8 °C 6 km 500 ft 280° 280° 3 kt METAR EDDG 291620Z AUTO 28003KT 230V320 6000 OVC005 08/07 Q1019 REDZ TEMPO 3500 BKN004
16:50
I
8 °C 2,4 km 500 ft 250° 250° 4 kt METAR EDDG 291550Z AUTO 25004KT 2400 -RADZ BR BKN005 OVC018 08/07 Q1019 RERA TEMPO 1300 BKN002
16:20
I
8 °C 3,9 km 600 ft 240° 240° 4 kt METAR EDDG 291520Z AUTO 24004KT 3900 BR BKN006 BKN010 OVC018 08/07 Q1019 REDZ TEMPO 5000
15:50
I
8 °C 2,6 km 600 ft 250° 250° 4 kt METAR EDDG 291450Z AUTO 25004KT 2600 DZ BR BKN006 08/07 Q1019 TEMPO 3000 NSW
15:20
I
8 °C 9 km 500 ft 260° 260° 5 kt METAR EDDG 291420Z AUTO 26005KT 9000 BKN005 08/07 Q1019
14:50
L
8 °C 7 km 400 ft 260° 260° 5 kt METAR EDDG 291350Z AUTO 26005KT 7000 VCSH OVC004 FEW///TCU 08/07 Q1018 NOSIG
14:20
L
8 °C 5 km 300 ft 260° 260° 5 kt METAR EDDG 291320Z AUTO 26005KT 5000 BR OVC003 08/07 Q1018 NOSIG
13:50
L
8 °C 8 km 400 ft 270° 270° 6 kt SPECI EDDG 291250Z AUTO 27006KT 8000 OVC004 08/07 Q1018 BECMG BKN005
13:20
L
8 °C 3,8 km 300 ft 260° 260° 5 kt METAR EDDG 291220Z AUTO 26005KT 3800 BR OVC003 08/07 Q1018 TEMPO 2000
12:50
L
7 °C 3,2 km 200 ft 270° 270° 5 kt METAR EDDG 291150Z AUTO 27005KT 3200 BR OVC002 07/07 Q1018 REDZ NOSIG
12:20
L
7 °C 1,3 km 200 ft 270° 270° 6 kt METAR EDDG 291120Z AUTO 27006KT 1400 1300 R25/1800U -DZ BR OVC002 07/07 Q1018 REDZ BECMG 3000
11:50
L
8 °C 2,9 km 300 ft 270° 270° 6 kt METAR EDDG 291050Z AUTO 27006KT 2900 -RADZ BR OVC003 08/07 Q1018 REDZ TEMPO 4500
11:20
L
8 °C 4,1 km 300 ft 270° 270° 6 kt METAR EDDG 291020Z AUTO 27006KT 4100 BR OVC003 08/07 Q1018 NOSIG
10:50
L
8 °C 3,9 km 300 ft 270° 270° 5 kt METAR EDDG 290950Z AUTO 27005KT 3900 BR OVC003 08/07 Q1017 TEMPO 2500
10:20
L
8 °C 3,3 km 300 ft 260° 260° 4 kt METAR EDDG 290920Z AUTO 26004KT 3300 -DZ BR OVC003 08/07 Q1017 NOSIG
09:50
L
7 °C 3 km 400 ft Var Var 2 kt METAR EDDG 290850Z AUTO VRB02KT 3000 -RA BR BKN004 07/07 Q1017 NOSIG
09:20
I
7 °C 2,9 km 600 ft Var Var 1 kt METAR EDDG 290820Z AUTO VRB01KT 2900 -RA BR OVC006 07/07 Q1017 BECMG BKN004
08:50
I
7 °C 2,7 km 800 ft 140° 140° 2 kt METAR EDDG 290750Z AUTO 14002KT 2700 BR OVC008 07/07 Q1017 TEMPO BKN004
08:20
I
7 °C 3 km 700 ft 130° 130° 1 kt METAR EDDG 290720Z AUTO 13001KT 3000 BR FEW001 OVC007 07/07 Q1016 TEMPO 2500
07:50
I
7 °C 2,5 km 800 ft Var Var 1 kt METAR EDDG 290650Z AUTO VRB01KT 2500 BR SCT002 BKN008 07/06 Q1016 NOSIG
07:20
L
7 °C 3,3 km 200 ft Var Var 1 kt METAR EDDG 290620Z AUTO VRB01KT 3300 BR BKN002 BKN009 07/06 Q1016 NOSIG
06:50
L
7 °C 2,6 km 200 ft Var Var 1 kt METAR EDDG 290550Z AUTO VRB01KT 2600 BR BKN002 BKN009 07/06 Q1015 NOSIG
06:20
L
7 °C 1,1 km 100 ft Var 000° 0 kt METAR EDDG 290520Z AUTO 00000KT 1500 1100 R25/1500U BR BKN001 BKN006 BKN009 07/06 Q1015 TEMPO 0700 FG BKN001
05:50
L
7 °C 800 m 900 ft Var 000° 0 kt METAR EDDG 290450Z AUTO 00000KT 0900 0800 R25/1100N FG SCT001 BKN009 07/06 Q1015 TEMPO BKN001
05:20
L
7 °C 800 m 100 ft Var 000° 0 kt METAR EDDG 290420Z AUTO 00000KT 0800 R25/1000U FG BKN001 07/06 Q1015 NOSIG
04:50
L
6 °C 800 m 100 ft Var Var 1 kt METAR EDDG 290350Z AUTO VRB01KT 0800 R25/1000N FG BKN001 06/06 Q1015 TEMPO 0500
04:20
L
6 °C 600 m - Var Var 1 kt METAR EDDG 290320Z AUTO VRB01KT 0650 0600 R25/0800N FG SCT001 SCT004 06/06 Q1014 TEMPO 0300 BKN001
03:50
L
6 °C 500 m - 070° 070° 1 kt METAR EDDG 290250Z AUTO 07001KT 0500 R25/0600N FG FEW003 06/06 Q1014 TEMPO 0300 BKN001
03:20
L
6 °C 600 m 100 ft Var Var 1 kt METAR EDDG 290220Z AUTO VRB01KT 0600 R25/0900N FG BKN001 06/06 Q1014 TEMPO 0300 BKN000
02:50
L
6 °C 800 m 100 ft 160° 160° 1 kt METAR EDDG 290150Z AUTO 16001KT 0900 0800 R25/1000D FG BKN001 06/06 Q1014 NOSIG
02:20
L
6 °C 900 m 100 ft Var Var 1 kt METAR EDDG 290120Z AUTO VRB01KT 1000 0900 R25/1300U BCFG BKN001 06/06 Q1014 TEMPO 0700 FG
01:50
L
6 °C 900 m 100 ft Var Var 2 kt METAR EDDG 290050Z AUTO VRB02KT 0900 R25/1200N FG BKN001 06/06 Q1013 TEMPO 0600
01:20
L
6 °C 700 m - Var Var 1 kt METAR EDDG 290020Z AUTO VRB01KT 0750 0700 R25/1000N FG SCT001 06/06 Q1013 TEMPO 0500 BKN001
00:50
L
6 °C 650 m - Var Var 1 kt METAR EDDG 282350Z AUTO VRB01KT 0700 0650 R25/0900N FG SCT001 06/06 Q1013 TEMPO 0500
00:20
L
6 °C 800 m 100 ft 110° 110° 1 kt METAR EDDG 282320Z AUTO 11001KT 0800 R25/1000U FG BKN001 06/06 Q1013 TEMPO 0500

28 novembre 2022

Temps Code Temps Temp. Vue Base cloud Vent METAR/SPECI
23:50
L
6 °C 600 m 100 ft Var Var 1 kt METAR EDDG 282250Z AUTO VRB01KT 0700 0600 R25/0900N FG BKN001 06/06 Q1013 REDZ TEMPO 0300
23:20
L
6 °C 550 m 200 ft Var Var 1 kt METAR EDDG 282220Z AUTO VRB01KT 0600 0550 R25/1100N DZ FG BKN002 06/06 Q1013 TEMPO 0300 -DZ FG BKN001
22:50
L
6 °C 550 m 300 ft Var Var 1 kt METAR EDDG 282150Z AUTO VRB01KT 0600 0550 R25/0900N -DZ FG VV003 06/06 Q1013 TEMPO 0300 VV001
22:20
L
6 °C 600 m 200 ft Var Var 2 kt METAR EDDG 282120Z AUTO VRB02KT 0650 0600 R25/1000N FG BKN002 06/06 Q1013 REDZ TEMPO 0300 BKN001
21:50
L
6 °C 700 m 100 ft Var Var 1 kt METAR EDDG 282050Z AUTO VRB01KT 0700 R25/0900N FG BKN001 06/06 Q1013 TEMPO 0300 BKN000
21:20
L
7 °C 1,1 km 100 ft Var Var 2 kt METAR EDDG 282020Z AUTO VRB02KT 1200 1100 R25/1700D BR BKN001 07/06 Q1013 TEMPO 0500 -DZ FG
20:50
L
7 °C 1,4 km 200 ft Var Var 2 kt METAR EDDG 281950Z AUTO VRB02KT 2300 1400 R25/P2000N BR BKN002 07/06 Q1012 TEMPO 1200 BR OVC001
20:20
L
7 °C 3,5 km 200 ft Var Var 2 kt METAR EDDG 281920Z AUTO VRB02KT 3500 BR BKN002 07/06 Q1012 NOSIG
19:50
L
7 °C 6 km 300 ft Var Var 1 kt METAR EDDG 281850Z AUTO VRB01KT 6000 -RA OVC003 07/06 Q1012 TEMPO 3000 -RADZ
19:20
L
7 °C 7 km 400 ft 150° 150° 2 kt METAR EDDG 281820Z AUTO 15002KT 7000 -SHRA OVC004 FEW///CB 07/06 Q1012 TEMPO 3000 -RADZ BR
18:50
I
7 °C 8 km 600 ft Var Var 2 kt METAR EDDG 281750Z AUTO VRB02KT 8000 OVC006 07/06 Q1012 TEMPO 3000 -RADZ
18:20
I
7 °C 8 km 600 ft 130° 130° 3 kt METAR EDDG 281720Z AUTO 13003KT 060V170 8000 -DZ OVC006 07/06 Q1012 TEMPO 3000 -RADZ OVC004
17:50
I
7 °C 7 km 600 ft 130° 130° 3 kt METAR EDDG 281650Z AUTO 13003KT 080V160 7000 -RA OVC006 07/06 Q1012 TEMPO 3000 -RADZ
17:20
I
7 °C 6 km 700 ft 120° 120° 3 kt METAR EDDG 281620Z AUTO 12003KT 070V170 6000 -RADZ OVC007 07/06 Q1011 TEMPO 3000 -RADZ
16:50
I
7 °C 8 km 800 ft Var Var 2 kt METAR EDDG 281550Z AUTO VRB02KT 8000 -RADZ OVC008 07/06 Q1011 TEMPO 3000 -RADZ BKN004
16:20
M
7 °C 7 km 1.100 ft 140° 140° 3 kt METAR EDDG 281520Z AUTO 14003KT 100V200 7000 -DZ FEW007 BKN011 07/06 Q1011 TEMPO 4000 BKN008
15:50
M
7 °C 5 km 1.900 ft Var Var 2 kt METAR EDDG 281450Z AUTO VRB02KT 5000 -RADZ BR FEW007 BKN019 BKN029 07/06 Q1011 TEMPO 4000 BR
15:20
M
7 °C 9 km 2.000 ft 140° 140° 3 kt METAR EDDG 281420Z AUTO 14003KT 080V170 9000 -RA FEW014 BKN020 07/06 Q1011 TEMPO BKN013
14:50
M
7 °C 7 km 1.400 ft 140° 140° 4 kt METAR EDDG 281350Z AUTO 14004KT 7000 -RADZ BKN014 BKN023 07/06 Q1011 TEMPO BKN008
14:20
M
7 °C 10 km+ 1.400 ft 140° 140° 5 kt METAR EDDG 281320Z AUTO 14005KT 100V160 9999 -DZ BKN014 07/05 Q1011 TEMPO BKN008
13:50
M
7 °C 10 km+ 1.500 ft 130° 130° 5 kt METAR EDDG 281250Z AUTO 13005KT 100V160 9999 -DZ OVC015 07/05 Q1010 TEMPO BKN010
13:20
M
7 °C 10 km+ 1.500 ft 140° 140° 4 kt METAR EDDG 281220Z AUTO 14004KT 100V170 9999 -DZ OVC015 07/05 Q1011 BECMG BKN012
12:50
M
7 °C 10 km+ 1.600 ft 120° 120° 4 kt METAR EDDG 281150Z AUTO 12004KT 080V150 9999 OVC016 07/05 Q1010 BECMG BKN012
12:20
M
6 °C 10 km+ 1.500 ft 110° 110° 3 kt METAR EDDG 281120Z AUTO 11003KT 040V170 9999 OVC015 06/05 Q1011 BECMG BKN012
11:50
M
6 °C 10 km+ 1.600 ft 130° 130° 4 kt METAR EDDG 281050Z AUTO 13004KT 030V170 9999 -RA BKN016 OVC020 06/05 Q1011 BECMG BKN012
11:20
M
6 °C 10 km+ 2.200 ft 130° 130° 5 kt METAR EDDG 281020Z AUTO 13005KT 080V160 9999 -RA OVC022 06/05 Q1011 BECMG BKN012
10:50
M
6 °C 10 km+ 2.400 ft 130° 130° 4 kt METAR EDDG 280950Z AUTO 13004KT 070V170 9999 BKN024 06/05 Q1011 BECMG BKN012

Nous et des tiers suivons ton comportement Internet sur notre site Web à l'aide de cookies. Si tu continues, nous supposons que tu es d'accord avec notre Politique en matière de cookies.